sensor_id;sensor_type;location;lat;lon;timestamp;pressure;altitude;pressure_sealevel;temperature;humidity
2711;BME280;20721;47.402;8.550;2023-05-22T00:00:22;95803;;;19.70;55.08
2711;BME280;20721;47.402;8.550;2023-05-22T00:01:25;95797;;;19.71;55.11
2711;BME280;20721;47.402;8.550;2023-05-22T00:02:23;95797;;;19.72;55.21
2711;BME280;20721;47.402;8.550;2023-05-22T00:03:23;95799;;;19.64;55.54
2711;BME280;20721;47.402;8.550;2023-05-22T00:04:22;95796;;;19.51;55.81
2711;BME280;20721;47.402;8.550;2023-05-22T00:05:23;95795;;;19.40;56.22
2711;BME280;20721;47.402;8.550;2023-05-22T00:06:23;95794;;;19.30;56.34
2711;BME280;20721;47.402;8.550;2023-05-22T00:07:23;95795;;;19.28;56.54
2711;BME280;20721;47.402;8.550;2023-05-22T00:09:23;95797;;;19.27;56.77
2711;BME280;20721;47.402;8.550;2023-05-22T00:10:22;95799;;;19.19;56.98
2711;BME280;20721;47.402;8.550;2023-05-22T00:11:22;95801;;;19.21;57.05
2711;BME280;20721;47.402;8.550;2023-05-22T00:12:22;95802;;;19.25;56.99
2711;BME280;20721;47.402;8.550;2023-05-22T00:13:22;95801;;;19.18;57.23
2711;BME280;20721;47.402;8.550;2023-05-22T00:14:22;95798;;;19.11;57.46
2711;BME280;20721;47.402;8.550;2023-05-22T00:15:22;95801;;;19.06;57.52
2711;BME280;20721;47.402;8.550;2023-05-22T00:16:23;95803;;;19.09;57.53
2711;BME280;20721;47.402;8.550;2023-05-22T00:17:24;95801;;;19.13;57.51
2711;BME280;20721;47.402;8.550;2023-05-22T00:18:24;95805;;;19.17;57.50
2711;BME280;20721;47.402;8.550;2023-05-22T00:19:23;95809;;;19.18;57.48
2711;BME280;20721;47.402;8.550;2023-05-22T00:20:23;95807;;;19.12;57.71
2711;BME280;20721;47.402;8.550;2023-05-22T00:21:23;95810;;;19.08;57.84
2711;BME280;20721;47.402;8.550;2023-05-22T00:22:22;95805;;;19.01;58.02
2711;BME280;20721;47.402;8.550;2023-05-22T00:23:23;95805;;;19.00;58.14
2711;BME280;20721;47.402;8.550;2023-05-22T00:24:22;95805;;;19.03;58.06
2711;BME280;20721;47.402;8.550;2023-05-22T00:25:23;95808;;;19.05;58.01
2711;BME280;20721;47.402;8.550;2023-05-22T00:26:22;95806;;;19.09;58.06
2711;BME280;20721;47.402;8.550;2023-05-22T00:27:22;95803;;;19.12;57.91
2711;BME280;20721;47.402;8.550;2023-05-22T00:28:23;95806;;;19.14;57.87
2711;BME280;20721;47.402;8.550;2023-05-22T00:29:23;95806;;;19.15;57.80
2711;BME280;20721;47.402;8.550;2023-05-22T00:30:22;95805;;;19.18;57.68
2711;BME280;20721;47.402;8.550;2023-05-22T00:31:23;95802;;;19.20;57.62
2711;BME280;20721;47.402;8.550;2023-05-22T00:32:23;95803;;;19.22;57.68
2711;BME280;20721;47.402;8.550;2023-05-22T00:34:23;95804;;;19.24;57.55
2711;BME280;20721;47.402;8.550;2023-05-22T00:35:23;95803;;;19.26;57.52
2711;BME280;20721;47.402;8.550;2023-05-22T00:36:23;95805;;;19.29;57.38
2711;BME280;20721;47.402;8.550;2023-05-22T00:37:24;95807;;;19.32;57.38
2711;BME280;20721;47.402;8.550;2023-05-22T00:38:31;95802;;;19.34;57.28
2711;BME280;20721;47.402;8.550;2023-05-22T00:39:23;95803;;;19.37;57.34
2711;BME280;20721;47.402;8.550;2023-05-22T00:40:23;95804;;;19.39;57.13
2711;BME280;20721;47.402;8.550;2023-05-22T00:42:23;95805;;;19.40;56.92
2711;BME280;20721;47.402;8.550;2023-05-22T00:43:22;95804;;;19.38;56.90
2711;BME280;20721;47.402;8.550;2023-05-22T00:44:23;95803;;;19.33;56.81
2711;BME280;20721;47.402;8.550;2023-05-22T00:45:23;95804;;;19.31;57.10
2711;BME280;20721;47.402;8.550;2023-05-22T00:46:23;95805;;;19.25;57.01
2711;BME280;20721;47.402;8.550;2023-05-22T00:47:23;95803;;;19.24;57.19
2711;BME280;20721;47.402;8.550;2023-05-22T00:50:23;95806;;;19.25;57.24
2711;BME280;20721;47.402;8.550;2023-05-22T00:51:23;95806;;;19.26;57.03
2711;BME280;20721;47.402;8.550;2023-05-22T00:52:23;95805;;;19.24;56.77
2711;BME280;20721;47.402;8.550;2023-05-22T00:53:23;95808;;;19.21;56.83
2711;BME280;20721;47.402;8.550;2023-05-22T00:55:23;95807;;;19.17;56.95
2711;BME280;20721;47.402;8.550;2023-05-22T00:56:23;95809;;;19.15;57.18
2711;BME280;20721;47.402;8.550;2023-05-22T00:58:23;95809;;;19.16;57.18
2711;BME280;20721;47.402;8.550;2023-05-22T01:00:23;95807;;;19.17;56.98
2711;BME280;20721;47.402;8.550;2023-05-22T01:01:25;95809;;;19.15;57.01
2711;BME280;20721;47.402;8.550;2023-05-22T01:02:23;95811;;;19.11;57.14
2711;BME280;20721;47.402;8.550;2023-05-22T01:03:25;95809;;;19.09;57.17
2711;BME280;20721;47.402;8.550;2023-05-22T01:06:23;95807;;;19.08;57.20
2711;BME280;20721;47.402;8.550;2023-05-22T01:08:23;95807;;;19.06;57.28
2711;BME280;20721;47.402;8.550;2023-05-22T01:09:23;95801;;;18.99;57.30
2711;BME280;20721;47.402;8.550;2023-05-22T01:10:24;95804;;;18.95;57.41
2711;BME280;20721;47.402;8.550;2023-05-22T01:11:24;95803;;;18.93;57.61
2711;BME280;20721;47.402;8.550;2023-05-22T01:14:28;95807;;;18.86;57.67
2711;BME280;20721;47.402;8.550;2023-05-22T01:17:41;95804;;;18.77;57.90
2711;BME280;20721;47.402;8.550;2023-05-22T01:18:33;95805;;;18.71;57.88
2711;BME280;20721;47.402;8.550;2023-05-22T01:20:24;95802;;;18.72;58.15
2711;BME280;20721;47.402;8.550;2023-05-22T01:21:26;95804;;;18.70;57.97
2711;BME280;20721;47.402;8.550;2023-05-22T01:23:32;95801;;;18.74;57.97
2711;BME280;20721;47.402;8.550;2023-05-22T01:27:30;95804;;;18.84;57.63
2711;BME280;20721;47.402;8.550;2023-05-22T01:30:34;95801;;;18.89;57.76
2711;BME280;20721;47.402;8.550;2023-05-22T01:31:24;95803;;;18.85;57.69
2711;BME280;20721;47.402;8.550;2023-05-22T01:32:23;95802;;;18.77;57.77
2711;BME280;20721;47.402;8.550;2023-05-22T01:33:27;95803;;;18.71;57.92
2711;BME280;20721;47.402;8.550;2023-05-22T01:34:23;95806;;;18.70;57.92
2711;BME280;20721;47.402;8.550;2023-05-22T01:36:23;95802;;;18.72;58.18
2711;BME280;20721;47.402;8.550;2023-05-22T01:37:23;95807;;;18.74;57.93
2711;BME280;20721;47.402;8.550;2023-05-22T01:38:23;95805;;;18.70;57.88
2711;BME280;20721;47.402;8.550;2023-05-22T01:39:23;95810;;;18.69;57.89
2711;BME280;20721;47.402;8.550;2023-05-22T01:40:23;95810;;;18.72;57.85
2711;BME280;20721;47.402;8.550;2023-05-22T01:41:23;95811;;;18.73;57.87
2711;BME280;20721;47.402;8.550;2023-05-22T01:42:23;95814;;;18.74;57.78
2711;BME280;20721;47.402;8.550;2023-05-22T01:43:23;95812;;;18.77;57.67
2711;BME280;20721;47.402;8.550;2023-05-22T01:44:24;95815;;;18.78;57.74
2711;BME280;20721;47.402;8.550;2023-05-22T01:45:23;95816;;;18.80;57.79
2711;BME280;20721;47.402;8.550;2023-05-22T01:46:25;95812;;;18.82;57.66
2711;BME280;20721;47.402;8.550;2023-05-22T01:47:23;95814;;;18.84;57.46
2711;BME280;20721;47.402;8.550;2023-05-22T01:48:23;95813;;;18.86;57.36
2711;BME280;20721;47.402;8.550;2023-05-22T01:49:23;95812;;;18.88;57.29
2711;BME280;20721;47.402;8.550;2023-05-22T01:50:23;95811;;;18.89;57.30
2711;BME280;20721;47.402;8.550;2023-05-22T01:52:26;95812;;;18.88;57.57
2711;BME280;20721;47.402;8.550;2023-05-22T01:53:40;95809;;;18.89;57.46
2711;BME280;20721;47.402;8.550;2023-05-22T01:55:37;95812;;;18.85;57.62
2711;BME280;20721;47.402;8.550;2023-05-22T01:56:32;95811;;;18.84;57.61
2711;BME280;20721;47.402;8.550;2023-05-22T01:57:26;95810;;;18.82;57.70
2711;BME280;20721;47.402;8.550;2023-05-22T01:58:33;95811;;;18.79;57.84
2711;BME280;20721;47.402;8.550;2023-05-22T02:00:23;95811;;;18.76;57.98
2711;BME280;20721;47.402;8.550;2023-05-22T02:01:23;95809;;;18.74;58.06
2711;BME280;20721;47.402;8.550;2023-05-22T02:02:23;95813;;;18.70;58.10
2711;BME280;20721;47.402;8.550;2023-05-22T02:03:24;95808;;;18.66;58.15
2711;BME280;20721;47.402;8.550;2023-05-22T02:04:23;95810;;;18.64;58.19
2711;BME280;20721;47.402;8.550;2023-05-22T02:05:23;95812;;;18.60;58.22
2711;BME280;20721;47.402;8.550;2023-05-22T02:06:24;95806;;;18.55;58.30
2711;BME280;20721;47.402;8.550;2023-05-22T02:07:23;95809;;;18.51;58.41
2711;BME280;20721;47.402;8.550;2023-05-22T02:08:24;95808;;;18.49;58.60
2711;BME280;20721;47.402;8.550;2023-05-22T02:09:23;95808;;;18.47;58.64
2711;BME280;20721;47.402;8.550;2023-05-22T02:10:23;95807;;;18.44;58.75
2711;BME280;20721;47.402;8.550;2023-05-22T02:11:23;95807;;;18.42;58.85
2711;BME280;20721;47.402;8.550;2023-05-22T02:12:23;95806;;;18.39;59.01
2711;BME280;20721;47.402;8.550;2023-05-22T02:13:23;95810;;;18.34;59.09
2711;BME280;20721;47.402;8.550;2023-05-22T02:14:23;95810;;;18.28;59.29
2711;BME280;20721;47.402;8.550;2023-05-22T02:16:23;95809;;;18.25;59.37
2711;BME280;20721;47.402;8.550;2023-05-22T02:17:23;95813;;;18.24;59.34
2711;BME280;20721;47.402;8.550;2023-05-22T02:19:23;95814;;;18.25;59.29
2711;BME280;20721;47.402;8.550;2023-05-22T02:20:23;95812;;;18.23;59.33
2711;BME280;20721;47.402;8.550;2023-05-22T02:21:23;95814;;;18.24;59.27
2711;BME280;20721;47.402;8.550;2023-05-22T02:22:23;95809;;;18.23;59.38
2711;BME280;20721;47.402;8.550;2023-05-22T02:23:23;95811;;;18.21;59.40
2711;BME280;20721;47.402;8.550;2023-05-22T02:24:23;95808;;;18.22;59.36
2711;BME280;20721;47.402;8.550;2023-05-22T02:25:23;95811;;;18.21;59.33
2711;BME280;20721;47.402;8.550;2023-05-22T02:26:23;95810;;;18.20;59.41
2711;BME280;20721;47.402;8.550;2023-05-22T02:27:23;95813;;;18.19;59.41
2711;BME280;20721;47.402;8.550;2023-05-22T02:28:23;95808;;;18.18;59.52
2711;BME280;20721;47.402;8.550;2023-05-22T02:29:23;95808;;;18.16;59.48
2711;BME280;20721;47.402;8.550;2023-05-22T02:30:23;95809;;;18.13;59.72
2711;BME280;20721;47.402;8.550;2023-05-22T02:31:23;95804;;;18.11;59.82
2711;BME280;20721;47.402;8.550;2023-05-22T02:32:23;95805;;;18.10;59.79
2711;BME280;20721;47.402;8.550;2023-05-22T02:35:23;95801;;;18.11;59.58
2711;BME280;20721;47.402;8.550;2023-05-22T02:37:23;95798;;;18.13;59.57
2711;BME280;20721;47.402;8.550;2023-05-22T02:38:23;95801;;;18.15;59.31
2711;BME280;20721;47.402;8.550;2023-05-22T02:39:23;95796;;;18.16;59.37
2711;BME280;20721;47.402;8.550;2023-05-22T02:41:23;95800;;;18.15;59.17
2711;BME280;20721;47.402;8.550;2023-05-22T02:42:23;95801;;;18.16;59.37
2711;BME280;20721;47.402;8.550;2023-05-22T02:43:23;95800;;;18.15;59.42
2711;BME280;20721;47.402;8.550;2023-05-22T02:44:23;95802;;;18.13;59.52
2711;BME280;20721;47.402;8.550;2023-05-22T02:45:23;95797;;;18.06;59.73
2711;BME280;20721;47.402;8.550;2023-05-22T02:46:23;95801;;;18.00;59.88
2711;BME280;20721;47.402;8.550;2023-05-22T02:47:23;95799;;;17.98;60.01
2711;BME280;20721;47.402;8.550;2023-05-22T02:48:23;95802;;;17.96;60.08
2711;BME280;20721;47.402;8.550;2023-05-22T02:49:23;95803;;;17.94;60.13
2711;BME280;20721;47.402;8.550;2023-05-22T02:51:23;95805;;;17.92;60.26
2711;BME280;20721;47.402;8.550;2023-05-22T02:52:23;95805;;;17.90;60.24
2711;BME280;20721;47.402;8.550;2023-05-22T02:53:23;95804;;;17.89;60.30
2711;BME280;20721;47.402;8.550;2023-05-22T02:55:23;95808;;;17.88;60.37
2711;BME280;20721;47.402;8.550;2023-05-22T02:56:23;95808;;;17.85;60.45
2711;BME280;20721;47.402;8.550;2023-05-22T02:57:23;95815;;;17.83;60.57
2711;BME280;20721;47.402;8.550;2023-05-22T02:59:23;95809;;;17.85;60.43
2711;BME280;20721;47.402;8.550;2023-05-22T03:00:23;95813;;;17.87;60.38
2711;BME280;20721;47.402;8.550;2023-05-22T03:01:25;95809;;;17.88;60.26
2711;BME280;20721;47.402;8.550;2023-05-22T03:02:24;95808;;;17.87;60.39
2711;BME280;20721;47.402;8.550;2023-05-22T03:03:24;95806;;;17.86;60.31
2711;BME280;20721;47.402;8.550;2023-05-22T03:04:23;95808;;;17.83;60.41
2711;BME280;20721;47.402;8.550;2023-05-22T03:06:24;95804;;;17.82;60.39
2711;BME280;20721;47.402;8.550;2023-05-22T03:07:25;95809;;;17.81;60.30
2711;BME280;20721;47.402;8.550;2023-05-22T03:08:23;95807;;;17.78;60.41
2711;BME280;20721;47.402;8.550;2023-05-22T03:09:23;95810;;;17.79;60.40
2711;BME280;20721;47.402;8.550;2023-05-22T03:10:23;95810;;;17.76;60.44
2711;BME280;20721;47.402;8.550;2023-05-22T03:11:23;95809;;;17.74;60.47
2711;BME280;20721;47.402;8.550;2023-05-22T03:12:23;95813;;;17.68;60.69
2711;BME280;20721;47.402;8.550;2023-05-22T03:13:23;95817;;;17.66;60.77
2711;BME280;20721;47.402;8.550;2023-05-22T03:14:23;95813;;;17.62;60.93
2711;BME280;20721;47.402;8.550;2023-05-22T03:15:23;95817;;;17.58;60.99
2711;BME280;20721;47.402;8.550;2023-05-22T03:16:23;95816;;;17.53;61.17
2711;BME280;20721;47.402;8.550;2023-05-22T03:18:26;95817;;;17.49;61.33
2711;BME280;20721;47.402;8.550;2023-05-22T03:19:23;95818;;;17.48;61.42
2711;BME280;20721;47.402;8.550;2023-05-22T03:21:23;95816;;;17.47;61.54
2711;BME280;20721;47.402;8.550;2023-05-22T03:22:23;95815;;;17.45;61.51
2711;BME280;20721;47.402;8.550;2023-05-22T03:23:24;95814;;;17.41;61.56
2711;BME280;20721;47.402;8.550;2023-05-22T03:24:23;95813;;;17.42;61.52
2711;BME280;20721;47.402;8.550;2023-05-22T03:25:23;95816;;;17.44;61.46
2711;BME280;20721;47.402;8.550;2023-05-22T03:27:23;95813;;;17.46;61.39
2711;BME280;20721;47.402;8.550;2023-05-22T03:28:23;95811;;;17.44;61.33
2711;BME280;20721;47.402;8.550;2023-05-22T03:29:23;95810;;;17.46;61.35
2711;BME280;20721;47.402;8.550;2023-05-22T03:30:23;95810;;;17.47;61.40
2711;BME280;20721;47.402;8.550;2023-05-22T03:32:23;95810;;;17.48;61.38
2711;BME280;20721;47.402;8.550;2023-05-22T03:34:23;95807;;;17.49;61.46
2711;BME280;20721;47.402;8.550;2023-05-22T03:36:24;95807;;;17.48;62.30
2711;BME280;20721;47.402;8.550;2023-05-22T03:37:23;95807;;;17.47;62.16
2711;BME280;20721;47.402;8.550;2023-05-22T03:38:23;95809;;;17.44;62.58
2711;BME280;20721;47.402;8.550;2023-05-22T03:39:23;95811;;;17.43;62.64
2711;BME280;20721;47.402;8.550;2023-05-22T03:40:23;95806;;;17.42;62.75
2711;BME280;20721;47.402;8.550;2023-05-22T03:41:23;95806;;;17.40;62.84
2711;BME280;20721;47.402;8.550;2023-05-22T03:42:23;95805;;;17.39;62.79
2711;BME280;20721;47.402;8.550;2023-05-22T03:43:23;95809;;;17.38;62.89
2711;BME280;20721;47.402;8.550;2023-05-22T03:44:23;95808;;;17.41;62.87
2711;BME280;20721;47.402;8.550;2023-05-22T03:46:23;95807;;;17.42;62.85
2711;BME280;20721;47.402;8.550;2023-05-22T03:47:23;95807;;;17.44;62.82
2711;BME280;20721;47.402;8.550;2023-05-22T03:49:23;95806;;;17.45;62.76
2711;BME280;20721;47.402;8.550;2023-05-22T03:50:23;95808;;;17.48;62.72
2711;BME280;20721;47.402;8.550;2023-05-22T03:53:23;95810;;;17.47;62.29
2711;BME280;20721;47.402;8.550;2023-05-22T03:54:23;95812;;;17.44;62.24
2711;BME280;20721;47.402;8.550;2023-05-22T03:55:23;95814;;;17.37;62.30
2711;BME280;20721;47.402;8.550;2023-05-22T03:56:23;95816;;;17.31;62.09
2711;BME280;20721;47.402;8.550;2023-05-22T03:57:23;95815;;;17.26;62.17
2711;BME280;20721;47.402;8.550;2023-05-22T03:58:24;95817;;;17.23;62.41
2711;BME280;20721;47.402;8.550;2023-05-22T03:59:23;95822;;;17.21;62.77
2711;BME280;20721;47.402;8.550;2023-05-22T04:00:25;95822;;;17.22;62.71
2711;BME280;20721;47.402;8.550;2023-05-22T04:02:25;95823;;;17.24;63.13
2711;BME280;20721;47.402;8.550;2023-05-22T04:03:23;95823;;;17.26;63.07
2711;BME280;20721;47.402;8.550;2023-05-22T04:04:26;95828;;;17.29;63.04
2711;BME280;20721;47.402;8.550;2023-05-22T04:05:23;95824;;;17.32;63.02
2711;BME280;20721;47.402;8.550;2023-05-22T04:07:23;95825;;;17.30;63.03
2711;BME280;20721;47.402;8.550;2023-05-22T04:08:23;95825;;;17.21;63.29
2711;BME280;20721;47.402;8.550;2023-05-22T04:09:28;95825;;;17.05;63.67
2711;BME280;20721;47.402;8.550;2023-05-22T04:10:23;95828;;;17.02;63.95
2711;BME280;20721;47.402;8.550;2023-05-22T04:11:23;95831;;;17.00;64.05
2711;BME280;20721;47.402;8.550;2023-05-22T04:12:23;95829;;;16.97;64.08
2711;BME280;20721;47.402;8.550;2023-05-22T04:13:23;95832;;;17.00;64.05
2711;BME280;20721;47.402;8.550;2023-05-22T04:14:23;95832;;;17.03;63.93
2711;BME280;20721;47.402;8.550;2023-05-22T04:15:23;95831;;;17.07;63.75
2711;BME280;20721;47.402;8.550;2023-05-22T04:16:23;95831;;;17.13;63.65
2711;BME280;20721;47.402;8.550;2023-05-22T04:17:25;95831;;;17.19;63.37
2711;BME280;20721;47.402;8.550;2023-05-22T04:18:23;95831;;;17.25;63.39
2711;BME280;20721;47.402;8.550;2023-05-22T04:19:23;95834;;;17.27;62.91
2711;BME280;20721;47.402;8.550;2023-05-22T04:20:23;95833;;;17.30;62.90
2711;BME280;20721;47.402;8.550;2023-05-22T04:22:23;95833;;;17.17;62.97
2711;BME280;20721;47.402;8.550;2023-05-22T04:23:23;95831;;;17.03;63.39
2711;BME280;20721;47.402;8.550;2023-05-22T04:24:24;95836;;;16.86;63.67
2711;BME280;20721;47.402;8.550;2023-05-22T04:25:23;95833;;;16.71;63.96
2711;BME280;20721;47.402;8.550;2023-05-22T04:26:24;95831;;;16.68;64.26
2711;BME280;20721;47.402;8.550;2023-05-22T04:27:23;95835;;;16.65;64.21
2711;BME280;20721;47.402;8.550;2023-05-22T04:28:23;95836;;;16.56;64.46
2711;BME280;20721;47.402;8.550;2023-05-22T04:29:23;95837;;;16.50;64.70
2711;BME280;20721;47.402;8.550;2023-05-22T04:30:24;95837;;;16.47;64.84
2711;BME280;20721;47.402;8.550;2023-05-22T04:31:23;95838;;;16.45;64.99
2711;BME280;20721;47.402;8.550;2023-05-22T04:32:23;95837;;;16.49;64.77
2711;BME280;20721;47.402;8.550;2023-05-22T04:33:23;95842;;;16.55;64.68
2711;BME280;20721;47.402;8.550;2023-05-22T04:34:23;95840;;;16.65;64.46
2711;BME280;20721;47.402;8.550;2023-05-22T04:35:23;95840;;;16.78;64.27
2711;BME280;20721;47.402;8.550;2023-05-22T04:36:25;95841;;;16.88;63.99
2711;BME280;20721;47.402;8.550;2023-05-22T04:37:25;95843;;;16.99;63.77
2711;BME280;20721;47.402;8.550;2023-05-22T04:38:25;95844;;;17.08;63.59
2711;BME280;20721;47.402;8.550;2023-05-22T04:39:25;95847;;;17.19;63.40
2711;BME280;20721;47.402;8.550;2023-05-22T04:40:25;95849;;;17.26;63.25
2711;BME280;20721;47.402;8.550;2023-05-22T04:41:25;95849;;;17.33;62.95
2711;BME280;20721;47.402;8.550;2023-05-22T04:42:24;95851;;;17.38;62.85
2711;BME280;20721;47.402;8.550;2023-05-22T04:43:25;95854;;;17.43;62.72
2711;BME280;20721;47.402;8.550;2023-05-22T04:44:23;95855;;;17.45;62.73
2711;BME280;20721;47.402;8.550;2023-05-22T04:45:24;95856;;;17.50;62.69
2711;BME280;20721;47.402;8.550;2023-05-22T04:46:23;95857;;;17.56;62.48
2711;BME280;20721;47.402;8.550;2023-05-22T04:47:23;95860;;;17.60;62.42
2711;BME280;20721;47.402;8.550;2023-05-22T04:48:23;95861;;;17.65;62.25
2711;BME280;20721;47.402;8.550;2023-05-22T04:49:23;95859;;;17.67;62.20
2711;BME280;20721;47.402;8.550;2023-05-22T04:50:23;95860;;;17.71;62.19
2711;BME280;20721;47.402;8.550;2023-05-22T04:51:23;95861;;;17.72;62.18
2711;BME280;20721;47.402;8.550;2023-05-22T04:52:23;95863;;;17.71;62.21
2711;BME280;20721;47.402;8.550;2023-05-22T04:53:23;95866;;;17.72;62.19
2711;BME280;20721;47.402;8.550;2023-05-22T04:54:23;95864;;;17.74;62.20
2711;BME280;20721;47.402;8.550;2023-05-22T04:55:23;95866;;;17.78;62.11
2711;BME280;20721;47.402;8.550;2023-05-22T04:56:33;95868;;;17.82;62.10
2711;BME280;20721;47.402;8.550;2023-05-22T04:57:26;95871;;;17.86;62.01
2711;BME280;20721;47.402;8.550;2023-05-22T04:58:26;95871;;;17.89;61.93
2711;BME280;20721;47.402;8.550;2023-05-22T04:59:25;95872;;;17.93;61.83
2711;BME280;20721;47.402;8.550;2023-05-22T05:00:25;95873;;;17.97;61.77
2711;BME280;20721;47.402;8.550;2023-05-22T05:01:23;95874;;;18.00;61.72
2711;BME280;20721;47.402;8.550;2023-05-22T05:02:23;95871;;;18.03;61.68
2711;BME280;20721;47.402;8.550;2023-05-22T05:03:25;95866;;;18.06;61.60
2711;BME280;20721;47.402;8.550;2023-05-22T05:04:23;95871;;;18.11;61.55
2711;BME280;20721;47.402;8.550;2023-05-22T05:05:23;95873;;;18.15;61.45
2711;BME280;20721;47.402;8.550;2023-05-22T05:06:23;95869;;;18.17;61.26
2711;BME280;20721;47.402;8.550;2023-05-22T05:07:24;95867;;;18.20;61.23
2711;BME280;20721;47.402;8.550;2023-05-22T05:08:23;95867;;;18.22;61.20
2711;BME280;20721;47.402;8.550;2023-05-22T05:09:23;95868;;;18.25;61.17
2711;BME280;20721;47.402;8.550;2023-05-22T05:10:23;95866;;;18.29;60.97
2711;BME280;20721;47.402;8.550;2023-05-22T05:11:23;95866;;;18.30;60.90
2711;BME280;20721;47.402;8.550;2023-05-22T05:12:23;95864;;;18.28;60.95
2711;BME280;20721;47.402;8.550;2023-05-22T05:13:23;95865;;;18.29;60.85
2711;BME280;20721;47.402;8.550;2023-05-22T05:14:24;95865;;;18.33;60.78
2711;BME280;20721;47.402;8.550;2023-05-22T05:15:23;95863;;;18.34;60.49
2711;BME280;20721;47.402;8.550;2023-05-22T05:16:24;95863;;;18.33;60.57
2711;BME280;20721;47.402;8.550;2023-05-22T05:17:23;95867;;;18.35;60.85
2711;BME280;20721;47.402;8.550;2023-05-22T05:18:24;95868;;;18.38;60.67
2711;BME280;20721;47.402;8.550;2023-05-22T05:19:23;95866;;;18.32;59.67
2711;BME280;20721;47.402;8.550;2023-05-22T05:20:23;95865;;;18.33;59.57
2711;BME280;20721;47.402;8.550;2023-05-22T05:22:23;95869;;;18.30;59.19
2711;BME280;20721;47.402;8.550;2023-05-22T05:23:23;95868;;;18.29;59.18
2711;BME280;20721;47.402;8.550;2023-05-22T05:24:23;95870;;;18.33;59.17
2711;BME280;20721;47.402;8.550;2023-05-22T05:25:24;95866;;;18.34;58.61
2711;BME280;20721;47.402;8.550;2023-05-22T05:27:23;95866;;;18.37;58.84
2711;BME280;20721;47.402;8.550;2023-05-22T05:28:23;95866;;;18.43;58.63
2711;BME280;20721;47.402;8.550;2023-05-22T05:29:23;95868;;;18.49;58.33
2711;BME280;20721;47.402;8.550;2023-05-22T05:30:23;95869;;;18.54;58.04
2711;BME280;20721;47.402;8.550;2023-05-22T05:31:23;95870;;;18.60;58.02
2711;BME280;20721;47.402;8.550;2023-05-22T05:32:23;95870;;;18.66;57.86
2711;BME280;20721;47.402;8.550;2023-05-22T05:33:23;95874;;;18.74;57.75
2711;BME280;20721;47.402;8.550;2023-05-22T05:34:23;95871;;;18.82;57.73
2711;BME280;20721;47.402;8.550;2023-05-22T05:35:23;95867;;;18.90;57.68
2711;BME280;20721;47.402;8.550;2023-05-22T05:36:24;95869;;;18.97;57.76
2711;BME280;20721;47.402;8.550;2023-05-22T05:37:23;95870;;;19.03;56.65
2711;BME280;20721;47.402;8.550;2023-05-22T05:38:23;95868;;;19.02;56.64
2711;BME280;20721;47.402;8.550;2023-05-22T05:39:23;95868;;;18.98;56.67
2711;BME280;20721;47.402;8.550;2023-05-22T05:40:23;95870;;;18.89;56.81
2711;BME280;20721;47.402;8.550;2023-05-22T05:41:24;95867;;;18.85;56.97
2711;BME280;20721;47.402;8.550;2023-05-22T05:43:24;95864;;;18.90;56.51
2711;BME280;20721;47.402;8.550;2023-05-22T05:44:23;95864;;;18.99;56.65
2711;BME280;20721;47.402;8.550;2023-05-22T05:45:24;95869;;;19.13;56.55
2711;BME280;20721;47.402;8.550;2023-05-22T05:46:23;95871;;;19.26;56.49
2711;BME280;20721;47.402;8.550;2023-05-22T05:47:23;95872;;;19.39;56.48
2711;BME280;20721;47.402;8.550;2023-05-22T05:48:23;95868;;;19.47;55.22
2711;BME280;20721;47.402;8.550;2023-05-22T05:49:23;95867;;;19.54;55.17
2711;BME280;20721;47.402;8.550;2023-05-22T05:50:24;95865;;;19.61;55.09
2711;BME280;20721;47.402;8.550;2023-05-22T05:51:23;95871;;;19.71;55.42
2711;BME280;20721;47.402;8.550;2023-05-22T05:52:26;95869;;;19.81;55.13
2711;BME280;20721;47.402;8.550;2023-05-22T05:53:23;95867;;;19.90;55.20
2711;BME280;20721;47.402;8.550;2023-05-22T05:54:25;95869;;;19.99;54.68
2711;BME280;20721;47.402;8.550;2023-05-22T05:55:23;95871;;;20.09;54.61
2711;BME280;20721;47.402;8.550;2023-05-22T05:56:23;95868;;;20.16;53.69
2711;BME280;20721;47.402;8.550;2023-05-22T05:57:23;95872;;;20.22;53.96
2711;BME280;20721;47.402;8.550;2023-05-22T05:58:23;95870;;;20.30;53.49
2711;BME280;20721;47.402;8.550;2023-05-22T05:59:23;95874;;;20.37;52.16
2711;BME280;20721;47.402;8.550;2023-05-22T06:00:23;95870;;;20.41;51.77
2711;BME280;20721;47.402;8.550;2023-05-22T06:01:25;95873;;;20.46;51.94
2711;BME280;20721;47.402;8.550;2023-05-22T06:02:24;95872;;;20.54;51.92
2711;BME280;20721;47.402;8.550;2023-05-22T06:03:24;95873;;;20.61;51.78
2711;BME280;20721;47.402;8.550;2023-05-22T06:04:24;95874;;;20.67;51.23
2711;BME280;20721;47.402;8.550;2023-05-22T06:05:25;95878;;;20.75;51.23
2711;BME280;20721;47.402;8.550;2023-05-22T06:06:24;95880;;;20.80;51.45
2711;BME280;20721;47.402;8.550;2023-05-22T06:07:23;95879;;;20.88;51.34
2711;BME280;20721;47.402;8.550;2023-05-22T06:08:23;95878;;;20.95;51.16
2711;BME280;20721;47.402;8.550;2023-05-22T06:09:23;95883;;;21.02;50.96
2711;BME280;20721;47.402;8.550;2023-05-22T06:10:23;95884;;;21.10;51.22
2711;BME280;20721;47.402;8.550;2023-05-22T06:11:23;95882;;;21.17;51.05
2711;BME280;20721;47.402;8.550;2023-05-22T06:12:23;95883;;;21.24;51.14
2711;BME280;20721;47.402;8.550;2023-05-22T06:13:23;95885;;;21.33;50.81
2711;BME280;20721;47.402;8.550;2023-05-22T06:14:23;95886;;;21.41;50.16
2711;BME280;20721;47.402;8.550;2023-05-22T06:16:24;95887;;;21.45;49.95
2711;BME280;20721;47.402;8.550;2023-05-22T06:17:23;95887;;;21.48;49.58
2711;BME280;20721;47.402;8.550;2023-05-22T06:18:24;95891;;;21.55;49.33
2711;BME280;20721;47.402;8.550;2023-05-22T06:19:23;95890;;;21.62;49.31
2711;BME280;20721;47.402;8.550;2023-05-22T06:20:25;95891;;;21.70;49.46
2711;BME280;20721;47.402;8.550;2023-05-22T06:21:24;95889;;;21.76;49.26
2711;BME280;20721;47.402;8.550;2023-05-22T06:22:24;95890;;;21.82;49.04
2711;BME280;20721;47.402;8.550;2023-05-22T06:23:23;95892;;;21.89;49.01
2711;BME280;20721;47.402;8.550;2023-05-22T06:24:23;95890;;;21.95;48.81
2711;BME280;20721;47.402;8.550;2023-05-22T06:25:25;95889;;;22.03;48.57
2711;BME280;20721;47.402;8.550;2023-05-22T06:26:24;95892;;;22.08;48.69
2711;BME280;20721;47.402;8.550;2023-05-22T06:27:26;95890;;;22.14;48.37
2711;BME280;20721;47.402;8.550;2023-05-22T06:28:23;95894;;;22.20;48.27